sensor_id;sensor_type;location;lat;lon;timestamp;temperature;humidity
67182;DHT22;54114;53.524;49.396;2023-04-16T00:01:15;1.00;37.70
67182;DHT22;54114;53.524;49.396;2023-04-16T00:03:43;1.00;37.80
67182;DHT22;54114;53.524;49.396;2023-04-16T00:06:13;1.00;37.80
67182;DHT22;54114;53.524;49.396;2023-04-16T00:08:44;1.00;38.00
67182;DHT22;54114;53.524;49.396;2023-04-16T00:11:14;1.00;38.00
67182;DHT22;54114;53.524;49.396;2023-04-16T00:13:43;1.00;38.20
67182;DHT22;54114;53.524;49.396;2023-04-16T00:16:09;0.90;38.30
67182;DHT22;54114;53.524;49.396;2023-04-16T00:18:44;0.90;38.30
67182;DHT22;54114;53.524;49.396;2023-04-16T00:21:13;0.90;38.30
67182;DHT22;54114;53.524;49.396;2023-04-16T00:23:43;0.90;38.50
67182;DHT22;54114;53.524;49.396;2023-04-16T00:26:14;0.90;38.60
67182;DHT22;54114;53.524;49.396;2023-04-16T00:28:48;0.90;38.80
67182;DHT22;54114;53.524;49.396;2023-04-16T00:31:22;0.80;38.90
67182;DHT22;54114;53.524;49.396;2023-04-16T00:33:55;0.80;39.00
67182;DHT22;54114;53.524;49.396;2023-04-16T00:36:25;0.80;39.00
67182;DHT22;54114;53.524;49.396;2023-04-16T00:38:55;0.80;39.30
67182;DHT22;54114;53.524;49.396;2023-04-16T00:41:22;0.80;39.40
67182;DHT22;54114;53.524;49.396;2023-04-16T00:43:52;0.70;39.50
67182;DHT22;54114;53.524;49.396;2023-04-16T00:46:24;0.70;39.60
67182;DHT22;54114;53.524;49.396;2023-04-16T00:48:55;0.60;39.80
67182;DHT22;54114;53.524;49.396;2023-04-16T00:51:25;0.60;40.10
67182;DHT22;54114;53.524;49.396;2023-04-16T00:53:57;0.60;40.40
67182;DHT22;54114;53.524;49.396;2023-04-16T00:56:29;0.60;40.50
67182;DHT22;54114;53.524;49.396;2023-04-16T00:58:56;0.60;40.70
67182;DHT22;54114;53.524;49.396;2023-04-16T01:01:23;0.50;41.20
67182;DHT22;54114;53.524;49.396;2023-04-16T01:03:50;0.50;41.50
67182;DHT22;54114;53.524;49.396;2023-04-16T01:06:19;0.40;41.70
67182;DHT22;54114;53.524;49.396;2023-04-16T01:08:48;0.40;42.10
67182;DHT22;54114;53.524;49.396;2023-04-16T01:11:19;0.40;42.10
67182;DHT22;54114;53.524;49.396;2023-04-16T01:13:55;0.40;42.20
67182;DHT22;54114;53.524;49.396;2023-04-16T01:16:26;0.30;42.10
67182;DHT22;54114;53.524;49.396;2023-04-16T01:18:58;0.30;42.30
67182;DHT22;54114;53.524;49.396;2023-04-16T01:21:30;0.20;42.30
67182;DHT22;54114;53.524;49.396;2023-04-16T01:24:05;0.20;42.30
67182;DHT22;54114;53.524;49.396;2023-04-16T01:26:35;0.10;42.30
67182;DHT22;54114;53.524;49.396;2023-04-16T01:29:03;0.10;42.40
67182;DHT22;54114;53.524;49.396;2023-04-16T01:31:33;0.10;42.50
67182;DHT22;54114;53.524;49.396;2023-04-16T01:34:08;0.10;42.50
67182;DHT22;54114;53.524;49.396;2023-04-16T01:36:37;0.00;42.60
67182;DHT22;54114;53.524;49.396;2023-04-16T01:39:06;0.00;42.60
67182;DHT22;54114;53.524;49.396;2023-04-16T01:41:36;0.00;42.60
67182;DHT22;54114;53.524;49.396;2023-04-16T01:44:08;-0.10;42.70
67182;DHT22;54114;53.524;49.396;2023-04-16T01:46:37;-0.10;43.20
67182;DHT22;54114;53.524;49.396;2023-04-16T01:49:07;-0.20;43.30
67182;DHT22;54114;53.524;49.396;2023-04-16T01:51:36;-0.20;43.60
67182;DHT22;54114;53.524;49.396;2023-04-16T01:54:04;-0.20;43.60
67182;DHT22;54114;53.524;49.396;2023-04-16T01:56:35;-0.20;43.80
67182;DHT22;54114;53.524;49.396;2023-04-16T01:59:07;-0.20;43.90
67182;DHT22;54114;53.524;49.396;2023-04-16T02:01:41;-0.20;43.90
67182;DHT22;54114;53.524;49.396;2023-04-16T02:04:11;-0.20;43.90
67182;DHT22;54114;53.524;49.396;2023-04-16T02:06:43;-0.20;43.80
67182;DHT22;54114;53.524;49.396;2023-04-16T02:09:12;-0.20;44.00
67182;DHT22;54114;53.524;49.396;2023-04-16T02:11:43;-0.20;44.40
67182;DHT22;54114;53.524;49.396;2023-04-16T02:14:12;-0.20;44.60
67182;DHT22;54114;53.524;49.396;2023-04-16T02:16:46;-0.20;44.80
67182;DHT22;54114;53.524;49.396;2023-04-16T02:19:15;-0.20;44.90
67182;DHT22;54114;53.524;49.396;2023-04-16T02:21:44;-0.20;44.80
67182;DHT22;54114;53.524;49.396;2023-04-16T02:24:16;-0.20;44.80
67182;DHT22;54114;53.524;49.396;2023-04-16T02:26:49;-0.10;44.70
67182;DHT22;54114;53.524;49.396;2023-04-16T02:29:22;-0.10;44.60
67182;DHT22;54114;53.524;49.396;2023-04-16T02:31:54;0.00;44.60
67182;DHT22;54114;53.524;49.396;2023-04-16T02:34:24;0.10;44.80
67182;DHT22;54114;53.524;49.396;2023-04-16T02:36:55;0.20;44.70
67182;DHT22;54114;53.524;49.396;2023-04-16T02:39:25;0.20;44.40
67182;DHT22;54114;53.524;49.396;2023-04-16T02:41:52;0.30;44.50
67182;DHT22;54114;53.524;49.396;2023-04-16T02:44:22;0.40;44.50
67182;DHT22;54114;53.524;49.396;2023-04-16T02:46:53;0.60;44.50
67182;DHT22;54114;53.524;49.396;2023-04-16T02:49:24;0.70;44.60
67182;DHT22;54114;53.524;49.396;2023-04-16T02:51:56;0.90;44.40
67182;DHT22;54114;53.524;49.396;2023-04-16T02:54:23;1.00;44.20
67182;DHT22;54114;53.524;49.396;2023-04-16T02:56:52;1.20;44.30
67182;DHT22;54114;53.524;49.396;2023-04-16T02:59:24;1.50;44.70
67182;DHT22;54114;53.524;49.396;2023-04-16T03:01:53;1.70;44.20
67182;DHT22;54114;53.524;49.396;2023-04-16T03:04:26;2.00;44.00
67182;DHT22;54114;53.524;49.396;2023-04-16T03:06:59;2.20;43.70
67182;DHT22;54114;53.524;49.396;2023-04-16T03:09:26;2.50;43.50
67182;DHT22;54114;53.524;49.396;2023-04-16T03:11:52;2.80;43.40
67182;DHT22;54114;53.524;49.396;2023-04-16T03:14:23;3.10;43.10
67182;DHT22;54114;53.524;49.396;2023-04-16T03:16:56;3.30;42.80
67182;DHT22;54114;53.524;49.396;2023-04-16T03:19:25;3.60;42.70
67182;DHT22;54114;53.524;49.396;2023-04-16T03:21:55;3.90;42.30
67182;DHT22;54114;53.524;49.396;2023-04-16T03:24:24;4.20;42.00
67182;DHT22;54114;53.524;49.396;2023-04-16T03:26:58;4.40;41.70
67182;DHT22;54114;53.524;49.396;2023-04-16T03:29:30;4.70;41.30
67182;DHT22;54114;53.524;49.396;2023-04-16T03:31:56;5.00;40.90
67182;DHT22;54114;53.524;49.396;2023-04-16T03:34:29;5.20;40.60
67182;DHT22;54114;53.524;49.396;2023-04-16T03:36:57;5.50;40.30
67182;DHT22;54114;53.524;49.396;2023-04-16T03:39:29;5.80;40.00
67182;DHT22;54114;53.524;49.396;2023-04-16T03:41:58;6.10;39.70
67182;DHT22;54114;53.524;49.396;2023-04-16T03:44:27;6.30;39.30
67182;DHT22;54114;53.524;49.396;2023-04-16T03:46:56;6.60;39.00
67182;DHT22;54114;53.524;49.396;2023-04-16T03:49:26;6.80;38.60
67182;DHT22;54114;53.524;49.396;2023-04-16T03:51:54;7.00;38.30
67182;DHT22;54114;53.524;49.396;2023-04-16T03:54:28;7.30;38.00
67182;DHT22;54114;53.524;49.396;2023-04-16T03:57:02;7.50;37.80
67182;DHT22;54114;53.524;49.396;2023-04-16T03:59:34;7.70;37.20
67182;DHT22;54114;53.524;49.396;2023-04-16T04:02:03;8.00;36.80
67182;DHT22;54114;53.524;49.396;2023-04-16T04:04:32;8.30;36.40
67182;DHT22;54114;53.524;49.396;2023-04-16T04:06:58;8.50;35.90
67182;DHT22;54114;53.524;49.396;2023-04-16T04:09:25;8.70;35.30
67182;DHT22;54114;53.524;49.396;2023-04-16T04:11:56;9.00;35.00
67182;DHT22;54114;53.524;49.396;2023-04-16T04:14:23;9.10;34.60
67182;DHT22;54114;53.524;49.396;2023-04-16T04:16:52;9.40;34.40
67182;DHT22;54114;53.524;49.396;2023-04-16T04:19:23;9.70;33.90
67182;DHT22;54114;53.524;49.396;2023-04-16T04:21:53;10.00;33.40
67182;DHT22;54114;53.524;49.396;2023-04-16T04:24:20;10.30;32.90
67182;DHT22;54114;53.524;49.396;2023-04-16T04:26:46;10.60;32.30
67182;DHT22;54114;53.524;49.396;2023-04-16T04:29:13;10.90;31.70
67182;DHT22;54114;53.524;49.396;2023-04-16T04:31:40;11.10;31.20
67182;DHT22;54114;53.524;49.396;2023-04-16T04:34:09;11.30;30.70
67182;DHT22;54114;53.524;49.396;2023-04-16T04:36:38;11.40;30.20
67182;DHT22;54114;53.524;49.396;2023-04-16T04:39:07;11.60;30.70
67182;DHT22;54114;53.524;49.396;2023-04-16T04:41:34;11.90;29.60
67182;DHT22;54114;53.524;49.396;2023-04-16T04:44:00;12.10;29.30
67182;DHT22;54114;53.524;49.396;2023-04-16T04:46:29;12.50;29.10
67182;DHT22;54114;53.524;49.396;2023-04-16T04:48:58;12.80;28.70
67182;DHT22;54114;53.524;49.396;2023-04-16T04:51:25;13.20;28.30
67182;DHT22;54114;53.524;49.396;2023-04-16T04:53:52;13.40;27.80
67182;DHT22;54114;53.524;49.396;2023-04-16T04:56:21;13.70;27.80
67182;DHT22;54114;53.524;49.396;2023-04-16T04:58:49;13.90;27.50
67182;DHT22;54114;53.524;49.396;2023-04-16T05:01:16;14.20;27.10
67182;DHT22;54114;53.524;49.396;2023-04-16T05:03:43;14.50;26.60
67182;DHT22;54114;53.524;49.396;2023-04-16T05:06:10;14.70;26.40
67182;DHT22;54114;53.524;49.396;2023-04-16T05:08:36;14.90;26.00
67182;DHT22;54114;53.524;49.396;2023-04-16T05:11:08;15.10;25.40
67182;DHT22;54114;53.524;49.396;2023-04-16T05:13:34;15.40;25.10
67182;DHT22;54114;53.524;49.396;2023-04-16T05:16:03;15.80;25.00
67182;DHT22;54114;53.524;49.396;2023-04-16T05:18:30;16.20;24.50
67182;DHT22;54114;53.524;49.396;2023-04-16T05:21:00;16.50;24.00
67182;DHT22;54114;53.524;49.396;2023-04-16T05:23:27;16.70;23.60
67182;DHT22;54114;53.524;49.396;2023-04-16T05:25:54;16.90;23.50
67182;DHT22;54114;53.524;49.396;2023-04-16T05:28:22;17.00;22.90
67182;DHT22;54114;53.524;49.396;2023-04-16T05:30:50;17.10;22.80
67182;DHT22;54114;53.524;49.396;2023-04-16T05:33:16;17.20;22.70
67182;DHT22;54114;53.524;49.396;2023-04-16T05:35:43;17.20;22.70
67182;DHT22;54114;53.524;49.396;2023-04-16T05:38:12;17.50;22.30
67182;DHT22;54114;53.524;49.396;2023-04-16T05:40:43;17.80;21.60
67182;DHT22;54114;53.524;49.396;2023-04-16T05:43:12;17.80;21.40
67182;DHT22;54114;53.524;49.396;2023-04-16T05:45:39;17.80;21.50
67182;DHT22;54114;53.524;49.396;2023-04-16T05:48:07;17.90;21.40
67182;DHT22;54114;53.524;49.396;2023-04-16T05:50:35;18.10;21.30
67182;DHT22;54114;53.524;49.396;2023-04-16T05:53:04;18.40;21.10
67182;DHT22;54114;53.524;49.396;2023-04-16T05:55:34;18.70;21.00
67182;DHT22;54114;53.524;49.396;2023-04-16T05:58:03;18.90;21.00
67182;DHT22;54114;53.524;49.396;2023-04-16T06:00:33;19.00;20.90
67182;DHT22;54114;53.524;49.396;2023-04-16T06:03:00;19.20;20.60
67182;DHT22;54114;53.524;49.396;2023-04-16T06:05:27;19.50;20.60
67182;DHT22;54114;53.524;49.396;2023-04-16T06:07:55;19.50;20.20
67182;DHT22;54114;53.524;49.396;2023-04-16T06:10:21;19.60;20.10
67182;DHT22;54114;53.524;49.396;2023-04-16T06:12:48;19.70;20.10
67182;DHT22;54114;53.524;49.396;2023-04-16T06:15:15;19.70;20.30
67182;DHT22;54114;53.524;49.396;2023-04-16T06:17:42;20.00;19.90
67182;DHT22;54114;53.524;49.396;2023-04-16T06:20:09;20.30;19.80
67182;DHT22;54114;53.524;49.396;2023-04-16T06:22:36;20.50;19.80
67182;DHT22;54114;53.524;49.396;2023-04-16T06:25:03;20.70;19.70
67182;DHT22;54114;53.524;49.396;2023-04-16T06:27:33;20.80;19.60
67182;DHT22;54114;53.524;49.396;2023-04-16T06:30:00;20.80;19.60
67182;DHT22;54114;53.524;49.396;2023-04-16T06:32:27;20.80;19.50
67182;DHT22;54114;53.524;49.396;2023-04-16T06:34:54;20.90;19.50
67182;DHT22;54114;53.524;49.396;2023-04-16T06:37:21;21.10;19.30
67182;DHT22;54114;53.524;49.396;2023-04-16T06:39:50;21.30;19.10
67182;DHT22;54114;53.524;49.396;2023-04-16T06:42:17;21.50;19.20
67182;DHT22;54114;53.524;49.396;2023-04-16T06:44:43;21.90;18.90
67182;DHT22;54114;53.524;49.396;2023-04-16T06:47:12;22.00;18.50
67182;DHT22;54114;53.524;49.396;2023-04-16T06:49:42;22.10;18.10
67182;DHT22;54114;53.524;49.396;2023-04-16T06:52:14;22.00;17.70
67182;DHT22;54114;53.524;49.396;2023-04-16T06:54:46;21.80;17.60
67182;DHT22;54114;53.524;49.396;2023-04-16T06:57:15;21.70;17.50
67182;DHT22;54114;53.524;49.396;2023-04-16T06:59:44;21.80;17.50
67182;DHT22;54114;53.524;49.396;2023-04-16T07:02:18;21.90;17.20
67182;DHT22;54114;53.524;49.396;2023-04-16T07:04:47;21.80;17.50
67182;DHT22;54114;53.524;49.396;2023-04-16T07:07:14;21.70;17.30
67182;DHT22;54114;53.524;49.396;2023-04-16T07:09:47;21.70;17.40
67182;DHT22;54114;53.524;49.396;2023-04-16T07:12:16;21.70;17.40
67182;DHT22;54114;53.524;49.396;2023-04-16T07:14:45;21.70;17.40
67182;DHT22;54114;53.524;49.396;2023-04-16T07:17:12;21.90;17.40
67182;DHT22;54114;53.524;49.396;2023-04-16T07:19:41;22.20;17.20
67182;DHT22;54114;53.524;49.396;2023-04-16T07:22:10;22.40;16.90
67182;DHT22;54114;53.524;49.396;2023-04-16T07:24:37;22.50;16.70
67182;DHT22;54114;53.524;49.396;2023-04-16T07:27:08;22.60;16.60
67182;DHT22;54114;53.524;49.396;2023-04-16T07:29:40;22.90;16.60
67182;DHT22;54114;53.524;49.396;2023-04-16T07:32:12;23.10;16.50
67182;DHT22;54114;53.524;49.396;2023-04-16T07:34:39;23.30;16.10
67182;DHT22;54114;53.524;49.396;2023-04-16T07:37:05;23.40;16.10
67182;DHT22;54114;53.524;49.396;2023-04-16T07:39:37;23.40;15.70
67182;DHT22;54114;53.524;49.396;2023-04-16T07:42:06;23.20;15.60
67182;DHT22;54114;53.524;49.396;2023-04-16T07:44:36;23.10;15.70
67182;DHT22;54114;53.524;49.396;2023-04-16T07:47:03;22.70;15.60
67182;DHT22;54114;53.524;49.396;2023-04-16T07:49:32;22.30;15.80
67182;DHT22;54114;53.524;49.396;2023-04-16T07:52:01;22.30;15.90
67182;DHT22;54114;53.524;49.396;2023-04-16T07:54:35;22.50;16.00
67182;DHT22;54114;53.524;49.396;2023-04-16T07:57:01;22.70;15.90
67182;DHT22;54114;53.524;49.396;2023-04-16T07:59:34;22.70;15.60
67182;DHT22;54114;53.524;49.396;2023-04-16T08:02:01;22.30;15.80
67182;DHT22;54114;53.524;49.396;2023-04-16T08:04:27;22.30;16.00
67182;DHT22;54114;53.524;49.396;2023-04-16T08:06:54;22.30;15.90
67182;DHT22;54114;53.524;49.396;2023-04-16T08:09:26;22.50;16.10
67182;DHT22;54114;53.524;49.396;2023-04-16T08:12:00;22.70;15.90
67182;DHT22;54114;53.524;49.396;2023-04-16T08:14:27;22.90;15.80
67182;DHT22;54114;53.524;49.396;2023-04-16T08:16:54;22.90;15.90
67182;DHT22;54114;53.524;49.396;2023-04-16T08:19:28;22.80;15.90
67182;DHT22;54114;53.524;49.396;2023-04-16T08:22:00;22.60;15.90
67182;DHT22;54114;53.524;49.396;2023-04-16T08:24:27;22.50;15.90
67182;DHT22;54114;53.524;49.396;2023-04-16T08:26:58;22.50;16.40
67182;DHT22;54114;53.524;49.396;2023-04-16T08:29:28;22.70;15.80
67182;DHT22;54114;53.524;49.396;2023-04-16T08:32:00;22.70;15.80
67182;DHT22;54114;53.524;49.396;2023-04-16T08:34:29;22.70;15.80
67182;DHT22;54114;53.524;49.396;2023-04-16T08:37:00;22.50;15.80
67182;DHT22;54114;53.524;49.396;2023-04-16T08:39:27;22.40;15.70
67182;DHT22;54114;53.524;49.396;2023-04-16T08:42:03;22.40;15.80
67182;DHT22;54114;53.524;49.396;2023-04-16T08:44:40;22.60;15.60
67182;DHT22;54114;53.524;49.396;2023-04-16T08:47:16;22.80;15.50
67182;DHT22;54114;53.524;49.396;2023-04-16T08:49:47;23.00;15.50
67182;DHT22;54114;53.524;49.396;2023-04-16T08:52:18;23.20;15.50
67182;DHT22;54114;53.524;49.396;2023-04-16T08:55:11;23.30;15.30
67182;DHT22;54114;53.524;49.396;2023-04-16T08:57:51;23.30;15.20
67182;DHT22;54114;53.524;49.396;2023-04-16T09:00:20;23.20;15.20
67182;DHT22;54114;53.524;49.396;2023-04-16T09:02:47;23.30;15.20
67182;DHT22;54114;53.524;49.396;2023-04-16T09:05:17;23.30;15.10
67182;DHT22;54114;53.524;49.396;2023-04-16T09:07:48;23.50;15.10
67182;DHT22;54114;53.524;49.396;2023-04-16T09:10:19;23.70;15.10
67182;DHT22;54114;53.524;49.396;2023-04-16T09:12:51;23.80;14.90
67182;DHT22;54114;53.524;49.396;2023-04-16T09:15:26;23.90;14.90
67182;DHT22;54114;53.524;49.396;2023-04-16T09:17:55;24.00;15.00
67182;DHT22;54114;53.524;49.396;2023-04-16T09:20:22;24.10;14.80
67182;DHT22;54114;53.524;49.396;2023-04-16T09:22:49;24.00;14.80
67182;DHT22;54114;53.524;49.396;2023-04-16T09:25:16;23.90;14.80
67182;DHT22;54114;53.524;49.396;2023-04-16T09:27:43;23.40;14.80
67182;DHT22;54114;53.524;49.396;2023-04-16T09:30:27;23.20;15.00
67182;DHT22;54114;53.524;49.396;2023-04-16T09:33:17;23.30;15.00
67182;DHT22;54114;53.524;49.396;2023-04-16T09:35:55;23.40;14.90
67182;DHT22;54114;53.524;49.396;2023-04-16T09:38:22;23.60;14.70
67182;DHT22;54114;53.524;49.396;2023-04-16T09:41:07;23.90;14.70
67182;DHT22;54114;53.524;49.396;2023-04-16T09:43:37;24.10;14.70
67182;DHT22;54114;53.524;49.396;2023-04-16T09:46:10;24.00;14.50
67182;DHT22;54114;53.524;49.396;2023-04-16T09:48:44;24.20;14.40
67182;DHT22;54114;53.524;49.396;2023-04-16T09:51:16;24.40;14.50
67182;DHT22;54114;53.524;49.396;2023-04-16T09:53:55;24.50;14.40
67182;DHT22;54114;53.524;49.396;2023-04-16T09:56:27;24.60;14.50
67182;DHT22;54114;53.524;49.396;2023-04-16T09:59:01;24.70;14.30
67182;DHT22;54114;53.524;49.396;2023-04-16T10:01:33;24.60;14.40
67182;DHT22;54114;53.524;49.396;2023-04-16T10:04:07;24.80;14.40
67182;DHT22;54114;53.524;49.396;2023-04-16T10:06:36;24.90;14.40
67182;DHT22;54114;53.524;49.396;2023-04-16T10:09:08;24.70;14.40
67182;DHT22;54114;53.524;49.396;2023-04-16T10:11:40;24.70;14.60
67182;DHT22;54114;53.524;49.396;2023-04-16T10:14:10;24.80;14.50
67182;DHT22;54114;53.524;49.396;2023-04-16T10:16:36;25.00;14.50
67182;DHT22;54114;53.524;49.396;2023-04-16T10:19:05;25.00;14.30
67182;DHT22;54114;53.524;49.396;2023-04-16T10:21:32;25.10;14.40
67182;DHT22;54114;53.524;49.396;2023-04-16T10:23:59;25.10;14.50
67182;DHT22;54114;53.524;49.396;2023-04-16T10:26:29;25.30;14.50
67182;DHT22;54114;53.524;49.396;2023-04-16T10:28:57;25.50;14.40
67182;DHT22;54114;53.524;49.396;2023-04-16T10:31:25;25.50;14.40
67182;DHT22;54114;53.524;49.396;2023-04-16T10:33:52;25.50;14.40
67182;DHT22;54114;53.524;49.396;2023-04-16T10:36:24;25.60;14.40
67182;DHT22;54114;53.524;49.396;2023-04-16T10:38:58;25.60;14.40
67182;DHT22;54114;53.524;49.396;2023-04-16T10:41:26;25.70;14.40
67182;DHT22;54114;53.524;49.396;2023-04-16T10:44:06;25.80;14.40
67182;DHT22;54114;53.524;49.396;2023-04-16T10:46:41;25.80;15.00
67182;DHT22;54114;53.524;49.396;2023-04-16T10:49:19;26.00;14.30
67182;DHT22;54114;53.524;49.396;2023-04-16T10:51:56;26.00;14.30
67182;DHT22;54114;53.524;49.396;2023-04-16T10:54:28;26.10;14.80
67182;DHT22;54114;53.524;49.396;2023-04-16T10:56:57;26.30;14.40
67182;DHT22;54114;53.524;49.396;2023-04-16T10:59:30;26.40;14.30
67182;DHT22;54114;53.524;49.396;2023-04-16T11:02:01;26.30;14.20
67182;DHT22;54114;53.524;49.396;2023-04-16T11:04:33;26.20;14.00
67182;DHT22;54114;53.524;49.396;2023-04-16T11:12:40;26.20;14.20
67182;DHT22;54114;53.524;49.396;2023-04-16T11:15:09;26.30;14.30
67182;DHT22;54114;53.524;49.396;2023-04-16T11:17:50;26.30;14.30
67182;DHT22;54114;53.524;49.396;2023-04-16T11:20:22;26.30;14.30
67182;DHT22;54114;53.524;49.396;2023-04-16T11:22:55;26.30;14.20
67182;DHT22;54114;53.524;49.396;2023-04-16T11:25:24;26.20;14.10
67182;DHT22;54114;53.524;49.396;2023-04-16T11:27:59;26.30;14.10
67182;DHT22;54114;53.524;49.396;2023-04-16T11:30:35;26.30;14.10
67182;DHT22;54114;53.524;49.396;2023-04-16T11:33:10;26.10;14.10
67182;DHT22;54114;53.524;49.396;2023-04-16T11:35:38;25.90;14.20
67182;DHT22;54114;53.524;49.396;2023-04-16T11:38:07;25.80;14.20
67182;DHT22;54114;53.524;49.396;2023-04-16T11:40:36;25.70;14.20
67182;DHT22;54114;53.524;49.396;2023-04-16T11:43:15;25.60;14.20
67182;DHT22;54114;53.524;49.396;2023-04-16T11:46:04;25.60;14.20
67182;DHT22;54114;53.524;49.396;2023-04-16T11:48:51;25.50;14.20
67182;DHT22;54114;53.524;49.396;2023-04-16T11:51:21;25.40;14.20
67182;DHT22;54114;53.524;49.396;2023-04-16T11:53:54;25.40;14.30
67182;DHT22;54114;53.524;49.396;2023-04-16T11:56:31;25.50;14.30
67182;DHT22;54114;53.524;49.396;2023-04-16T11:59:23;25.60;14.20
67182;DHT22;54114;53.524;49.396;2023-04-16T12:01:52;25.50;14.10
67182;DHT22;54114;53.524;49.396;2023-04-16T12:04:24;25.30;14.20
67182;DHT22;54114;53.524;49.396;2023-04-16T12:07:11;25.10;14.20
67182;DHT22;54114;53.524;49.396;2023-04-16T12:09:42;25.00;14.30
67182;DHT22;54114;53.524;49.396;2023-04-16T12:12:28;24.80;14.50
67182;DHT22;54114;53.524;49.396;2023-04-16T12:14:56;24.70;14.40
67182;DHT22;54114;53.524;49.396;2023-04-16T12:17:25;24.70;14.40
67182;DHT22;54114;53.524;49.396;2023-04-16T12:19:55;24.60;14.50
67182;DHT22;54114;53.524;49.396;2023-04-16T12:22:36;24.60;14.60
67182;DHT22;54114;53.524;49.396;2023-04-16T12:25:10;24.40;14.50
67182;DHT22;54114;53.524;49.396;2023-04-16T12:27:53;24.20;14.70
67182;DHT22;54114;53.524;49.396;2023-04-16T12:30:24;24.10;14.60
67182;DHT22;54114;53.524;49.396;2023-04-16T12:35:42;24.00;14.70
67182;DHT22;54114;53.524;49.396;2023-04-16T12:38:10;23.80;14.90
67182;DHT22;54114;53.524;49.396;2023-04-16T12:40:37;23.60;14.90
67182;DHT22;54114;53.524;49.396;2023-04-16T12:43:04;23.50;14.90
67182;DHT22;54114;53.524;49.396;2023-04-16T12:45:31;23.60;15.00
67182;DHT22;54114;53.524;49.396;2023-04-16T12:48:00;23.60;15.10
67182;DHT22;54114;53.524;49.396;2023-04-16T12:50:27;23.90;15.10
67182;DHT22;54114;53.524;49.396;2023-04-16T12:52:56;24.00;15.00
67182;DHT22;54114;53.524;49.396;2023-04-16T12:55:24;24.00;15.00
67182;DHT22;54114;53.524;49.396;2023-04-16T12:57:51;24.20;15.00
67182;DHT22;54114;53.524;49.396;2023-04-16T13:00:18;24.20;14.80
67182;DHT22;54114;53.524;49.396;2023-04-16T13:02:48;24.20;14.90
67182;DHT22;54114;53.524;49.396;2023-04-16T13:05:14;24.10;14.80
67182;DHT22;54114;53.524;49.396;2023-04-16T13:07:43;23.90;14.90
67182;DHT22;54114;53.524;49.396;2023-04-16T13:10:11;23.80;15.00
67182;DHT22;54114;53.524;49.396;2023-04-16T13:12:38;23.80;15.10
67182;DHT22;54114;53.524;49.396;2023-04-16T13:15:05;23.80;15.10
67182;DHT22;54114;53.524;49.396;2023-04-16T13:17:32;23.80;15.00
67182;DHT22;54114;53.524;49.396;2023-04-16T13:20:01;23.90;15.00
67182;DHT22;54114;53.524;49.396;2023-04-16T13:22:30;23.90;15.10
67182;DHT22;54114;53.524;49.396;2023-04-16T13:24:59;23.90;15.10
67182;DHT22;54114;53.524;49.396;2023-04-16T13:27:31;23.80;15.00
67182;DHT22;54114;53.524;49.396;2023-04-16T13:30:02;23.80;15.00
67182;DHT22;54114;53.524;49.396;2023-04-16T13:32:34;23.70;15.10
67182;DHT22;54114;53.524;49.396;2023-04-16T13:35:00;23.60;15.20
67182;DHT22;54114;53.524;49.396;2023-04-16T13:37:34;23.60;15.30
67182;DHT22;54114;53.524;49.396;2023-04-16T13:40:03;23.50;15.40
67182;DHT22;54114;53.524;49.396;2023-04-16T13:42:33;23.40;15.40
67182;DHT22;54114;53.524;49.396;2023-04-16T13:45:02;23.30;15.40
67182;DHT22;54114;53.524;49.396;2023-04-16T13:47:32;23.00;16.00
67182;DHT22;54114;53.524;49.396;2023-04-16T13:50:02;22.90;15.50
67182;DHT22;54114;53.524;49.396;2023-04-16T13:52:28;22.70;15.60
67182;DHT22;54114;53.524;49.396;2023-04-16T13:54:57;22.60;15.70
67182;DHT22;54114;53.524;49.396;2023-04-16T13:57:24;22.40;15.70
67182;DHT22;54114;53.524;49.396;2023-04-16T13:59:54;22.30;15.80
67182;DHT22;54114;53.524;49.396;2023-04-16T14:02:23;22.20;15.80
67182;DHT22;54114;53.524;49.396;2023-04-16T14:04:51;22.20;15.90
67182;DHT22;54114;53.524;49.396;2023-04-16T14:07:25;22.10;15.90
67182;DHT22;54114;53.524;49.396;2023-04-16T14:09:52;22.10;16.00
67182;DHT22;54114;53.524;49.396;2023-04-16T14:12:21;22.10;16.00
67182;DHT22;54114;53.524;49.396;2023-04-16T14:14:53;22.00;16.00
67182;DHT22;54114;53.524;49.396;2023-04-16T14:17:24;21.90;16.10
67182;DHT22;54114;53.524;49.396;2023-04-16T14:19:53;21.60;16.20
67182;DHT22;54114;53.524;49.396;2023-04-16T14:22:30;21.50;16.30
67182;DHT22;54114;53.524;49.396;2023-04-16T14:24:57;21.30;16.30
67182;DHT22;54114;53.524;49.396;2023-04-16T14:27:26;21.20;16.40
67182;DHT22;54114;53.524;49.396;2023-04-16T14:29:58;21.20;16.50
67182;DHT22;54114;53.524;49.396;2023-04-16T14:32:29;21.10;16.60
67182;DHT22;54114;53.524;49.396;2023-04-16T14:34:56;20.90;16.60
67182;DHT22;54114;53.524;49.396;2023-04-16T14:37:30;20.90;16.70
67182;DHT22;54114;53.524;49.396;2023-04-16T14:40:08;20.80;16.70
67182;DHT22;54114;53.524;49.396;2023-04-16T14:42:39;20.80;16.80
67182;DHT22;54114;53.524;49.396;2023-04-16T14:45:09;20.60;16.80
67182;DHT22;54114;53.524;49.396;2023-04-16T14:47:37;20.50;17.40
67182;DHT22;54114;53.524;49.396;2023-04-16T14:50:11;20.40;17.00
67182;DHT22;54114;53.524;49.396;2023-04-16T14:52:40;20.10;17.00
67182;DHT22;54114;53.524;49.396;2023-04-16T14:55:09;19.90;17.10
67182;DHT22;54114;53.524;49.396;2023-04-16T14:57:40;19.70;17.20
67182;DHT22;54114;53.524;49.396;2023-04-16T15:00:13;19.60;17.30
67182;DHT22;54114;53.524;49.396;2023-04-16T15:02:44;19.40;17.40
67182;DHT22;54114;53.524;49.396;2023-04-16T15:05:15;19.30;17.60
67182;DHT22;54114;53.524;49.396;2023-04-16T15:07:47;19.10;17.70
67182;DHT22;54114;53.524;49.396;2023-04-16T15:10:16;19.00;17.80
67182;DHT22;54114;53.524;49.396;2023-04-16T15:12:45;18.90;17.80
67182;DHT22;54114;53.524;49.396;2023-04-16T15:15:13;18.70;17.90
67182;DHT22;54114;53.524;49.396;2023-04-16T15:17:44;18.40;18.00
67182;DHT22;54114;53.524;49.396;2023-04-16T15:20:15;18.20;18.20
67182;DHT22;54114;53.524;49.396;2023-04-16T15:22:46;17.90;18.40
67182;DHT22;54114;53.524;49.396;2023-04-16T15:25:18;17.60;18.60
67182;DHT22;54114;53.524;49.396;2023-04-16T15:27:48;17.40;18.80
67182;DHT22;54114;53.524;49.396;2023-04-16T15:30:17;17.10;19.10
67182;DHT22;54114;53.524;49.396;2023-04-16T15:32:48;16.80;19.30
67182;DHT22;54114;53.524;49.396;2023-04-16T15:35:18;16.50;19.70
67182;DHT22;54114;53.524;49.396;2023-04-16T15:37:49;16.20;20.00
67182;DHT22;54114;53.524;49.396;2023-04-16T15:40:22;16.00;20.20
67182;DHT22;54114;53.524;49.396;2023-04-16T15:42:50;15.80;20.40
67182;DHT22;54114;53.524;49.396;2023-04-16T15:45:16;15.50;20.60
67182;DHT22;54114;53.524;49.396;2023-04-16T15:47:53;15.40;20.80